Terminal Aerodrome Forecast
Issued by NWS

Home | Current Version | Previous Version | Text Only | Print | Product List | Glossary On
Versions: 1 2 3 4 5 6 7 8 9 10 11 12 13 14
000
FTUS45 KTWC 232336
TAFOLS
TAF
KOLS 232336Z 2400/2424 22012G22KT P6SM FEW090
     FM240100 20008KT P6SM SKC
     FM240500 VRB03KT P6SM SKC
     FM242000 24010KT P6SM SKC=

USA.gov is the U.S. government's official web portal to all federal, state and local government web resources and services.